Fort Worth - NOAA's Hourly Summary for Thursday, July 5, 2018
Hour Temp
(f)
RH
(%)
Solar Rad.
(MJ/m2)
Rainfall
(in)
Wind
(mph)
7/5/2018 12:00 AM 78 72 0 0 6.03
7/5/2018 1:00 AM 77 74 0 0 5.29
7/5/2018 2:00 AM 76 75 0 0 2.65
7/5/2018 3:00 AM 75 78 0 0 3.15
7/5/2018 4:00 AM 75 80 0 0 3.31
7/5/2018 5:00 AM 74 82 0 0 2.97
7/5/2018 6:00 AM 74 83 0.01 0 3.03
7/5/2018 7:00 AM 76 81 0.28 0 3.13
7/5/2018 8:00 AM 78 74 1 0 4.97
7/5/2018 9:00 AM 81 65 1.68 0 3.61
7/5/2018 10:00 AM 83 60 2.19 0 4.42
7/5/2018 11:00 AM 86 53 2.71 0 3.21
7/5/2018 12:00 PM 88 48 3.03 0 5.43
7/5/2018 1:00 PM 90 44 2.99 0 7.49
7/5/2018 2:00 PM 92 40 3.38 0 5.01
7/5/2018 3:00 PM 94 38 2.96 0 4.18
7/5/2018 4:00 PM 95 35 2.38 0 6.85
7/5/2018 5:00 PM 95 35 1.94 0 3.56
7/5/2018 6:00 PM 95 36 1.12 0 6.64
7/5/2018 7:00 PM 94 39 0.48 0 8.32
7/5/2018 8:00 PM 91 45 0.14 0 9.53
7/5/2018 9:00 PM 90 48 0 0 7.66
7/5/2018 10:00 PM 88 52 0 0 9.46
7/5/2018 11:00 PM 87 55 0 0 8.93
Data Summary 84 58 26.29 0.00 5.37